Winslow Lindbergh Regional Airport
KINW : now visible

Airfield :











YOU CAN JOIN US ON...

 
LOGIN :

Register | Disclaimer

   EN    FR    IT 

 









Legend :    VFR   Marginal VFR   IFR   Intensive IFR   Very Intensive IFR
Visi :
Ceiling :
>= 8 km
>= 3000ft
5 to 8 km
1000 to 3000 ft
1500m to 5 km
500 to 1000 ft
800 to 1500m
200 to 500 ft
< 800m
< 200 ft
Symbols :   Thunderstorms  Fog  Heavy snow  Heavy precipitations  Wind > 20 kt






- Airport Elevation : 4941 ft


KINW - Winslow Lindbergh Regional

CURRENT METAR :
  • 202156Z AUTO 28022G31KT 10SM CLR 38/M02 A2992 RMK AO2 PK WND 26031/2156 WSHFT 2051 SLP032 T03831022 TSNO

EXPIRED METARs :
  • 202111Z AUTO 25015G25KT 10SM CLR 38/M01 A2994 RMK AO2 WSHFT 2051 T03831011 TSNO
  • 202056Z AUTO 28010G14KT 10SM CLR 38/M02 A2994 RMK AO2 PK WND 30027/2013 SLP039 T03781017 56010 TSNO
  • 201956Z AUTO 04017G25KT 10SM CLR 36/01 A2995 RMK AO2 SLP045 T03610006 TSNO

TAF KINW
Valid from the 20 at 20:00 until the 21 at 18:00 UTC


202001Z 2020/2118 27017G28KT P6SM VCSH SCT130
FM210400 23010KT P6SM FEW130
KZAB FIR / North America



MET'MAP, your aeronautical weather chart ! - Copyright ORBIFLY December 2007 - Disclaimer

ORBIFLY MET'MAP TEAM :

Programming & Development : Alexandra Zaïnal
Concept & original design : Baudouin d'Aumeries
Assistance for programming : Marc-Olivier Méhu
Technical & hardware support : Manuel Goepfert

Contact : metmap@orbifly.com




SOURCES & CREDITS :

   NOAA       Earth
Advisory